createdAt,value
2019-03-17T00:01:57.756Z,15.60
2019-03-17T00:04:31.535Z,22.90
2019-03-17T00:06:55.281Z,25.17
2019-03-17T00:09:24.524Z,19.37
2019-03-17T00:11:53.757Z,17.30
2019-03-17T00:14:23.099Z,15.97
2019-03-17T00:16:52.321Z,15.93
2019-03-17T00:19:21.703Z,18.73
2019-03-17T00:21:50.997Z,14.33
2019-03-17T00:24:20.407Z,19.07
2019-03-17T00:26:49.678Z,16.97
2019-03-17T00:29:19.495Z,15.63
2019-03-17T00:31:48.735Z,18.30
2019-03-17T00:34:17.984Z,18.47
2019-03-17T00:36:47.316Z,18.73
2019-03-17T00:39:16.557Z,20.83
2019-03-17T00:41:45.867Z,19.50
2019-03-17T00:44:15.135Z,20.63
2019-03-17T00:46:44.375Z,23.87
2019-03-17T00:49:13.617Z,18.60
2019-03-17T00:51:43.616Z,21.97
2019-03-17T00:54:12.875Z,21.37
2019-03-17T00:56:42.174Z,17.03
2019-03-17T00:59:11.484Z,17.50
2019-03-17T01:01:40.793Z,17.97
2019-03-17T01:04:10.046Z,16.97
2019-03-17T01:06:39.281Z,20.10
2019-03-17T01:09:08.634Z,30.07
2019-03-17T01:11:37.967Z,22.97
2019-03-17T01:14:07.205Z,20.50
2019-03-17T01:16:36.451Z,22.27
2019-03-17T01:19:05.864Z,21.20
2019-03-17T01:21:35.108Z,22.67
2019-03-17T01:24:04.363Z,21.53
2019-03-17T01:26:33.605Z,20.17
2019-03-17T01:29:02.919Z,20.10
2019-03-17T01:31:32.217Z,20.73
2019-03-17T01:34:02.763Z,19.33
2019-03-17T01:36:32.309Z,20.73
2019-03-17T01:39:01.550Z,17.10
2019-03-17T01:41:30.857Z,22.33
2019-03-17T01:44:00.553Z,19.00
2019-03-17T01:46:29.797Z,18.77
2019-03-17T01:48:59.038Z,20.23
2019-03-17T01:51:28.802Z,19.50
2019-03-17T01:53:58.146Z,19.37
2019-03-17T01:56:27.366Z,17.93
2019-03-17T01:58:58.395Z,17.77
2019-03-17T02:01:27.636Z,18.20
2019-03-17T02:03:57.463Z,17.80
2019-03-17T02:06:26.735Z,20.57
2019-03-17T02:08:55.977Z,18.83
2019-03-17T02:11:25.210Z,19.40
2019-03-17T02:13:54.488Z,16.80
2019-03-17T02:16:23.724Z,19.43
2019-03-17T02:18:53.022Z,19.17
2019-03-17T02:21:22.330Z,19.70
2019-03-17T02:23:51.639Z,19.53
2019-03-17T02:26:20.873Z,18.50
2019-03-17T02:28:50.152Z,17.83
2019-03-17T02:31:19.385Z,18.17
2019-03-17T02:33:48.812Z,18.73
2019-03-17T02:36:18.134Z,18.70
2019-03-17T02:38:47.443Z,17.03
2019-03-17T02:41:16.697Z,17.93
2019-03-17T02:43:46.021Z,18.30
2019-03-17T02:46:15.258Z,21.03
2019-03-17T02:48:44.497Z,19.70
2019-03-17T02:51:13.738Z,17.70
2019-03-17T02:53:42.981Z,21.47
2019-03-17T02:56:12.294Z,18.40
2019-03-17T02:58:41.564Z,16.63
2019-03-17T03:01:10.782Z,18.83
2019-03-17T03:03:40.489Z,22.80
2019-03-17T03:06:09.851Z,34.87
2019-03-17T03:08:39.160Z,20.57
2019-03-17T03:11:08.469Z,18.23
2019-03-17T03:13:37.710Z,20.07
2019-03-17T03:16:07.041Z,20.20
2019-03-17T03:18:36.275Z,20.73
2019-03-17T03:21:05.596Z,22.43
2019-03-17T03:23:34.937Z,22.30
2019-03-17T03:26:04.164Z,21.17
2019-03-17T03:28:33.410Z,23.63
2019-03-17T03:31:02.748Z,22.83
2019-03-17T03:33:31.990Z,23.20
2019-03-17T03:36:10.593Z,24.97
2019-03-17T03:38:32.362Z,20.43
2019-03-17T03:41:01.665Z,24.73
2019-03-17T03:43:30.890Z,24.50
2019-03-17T03:46:00.214Z,27.87
2019-03-17T03:48:29.469Z,28.33
2019-03-17T03:50:58.690Z,27.67
2019-03-17T03:53:28.010Z,26.80
2019-03-17T03:55:57.261Z,23.40
2019-03-17T03:58:26.492Z,25.67
2019-03-17T04:00:55.734Z,28.70
2019-03-17T04:03:25.125Z,25.67
2019-03-17T04:05:54.377Z,25.67
2019-03-17T04:08:23.686Z,26.93
2019-03-17T04:10:52.937Z,29.10
2019-03-17T04:13:22.180Z,24.90
2019-03-17T04:15:51.479Z,27.83
2019-03-17T04:18:20.752Z,29.20
2019-03-17T04:20:49.990Z,29.23
2019-03-17T04:23:19.308Z,33.33
2019-03-17T04:25:48.548Z,30.97
2019-03-17T04:28:17.763Z,35.20
2019-03-17T04:30:47.108Z,28.90
2019-03-17T04:33:17.225Z,27.00
2019-03-17T04:35:46.459Z,26.13
2019-03-17T04:38:15.690Z,25.60
2019-03-17T04:40:45.041Z,27.27
2019-03-17T04:43:14.290Z,27.10
2019-03-17T04:45:43.605Z,26.63
2019-03-17T04:48:12.845Z,27.93
2019-03-17T04:50:42.173Z,27.63
2019-03-17T04:53:11.338Z,28.83
2019-03-17T04:55:40.574Z,27.50
2019-03-17T04:58:09.818Z,30.63
2019-03-17T05:00:39.148Z,37.50
2019-03-17T05:03:08.441Z,40.87
2019-03-17T05:05:37.747Z,35.30
2019-03-17T05:08:08.470Z,37.47
2019-03-17T05:10:38.182Z,31.80
2019-03-17T05:13:07.415Z,31.93
2019-03-17T05:15:36.703Z,34.53
2019-03-17T05:18:05.941Z,33.20
2019-03-17T05:20:35.173Z,42.23
2019-03-17T05:23:05.903Z,43.93
2019-03-17T05:25:35.610Z,33.60
2019-03-17T05:28:04.942Z,33.10
2019-03-17T05:30:34.206Z,126.33
2019-03-17T05:33:03.867Z,60.17
2019-03-17T05:35:33.180Z,45.23
2019-03-17T05:38:02.502Z,42.80
2019-03-17T05:40:31.898Z,34.03
2019-03-17T05:43:01.643Z,31.37
2019-03-17T05:45:30.871Z,35.07
2019-03-17T05:48:00.130Z,31.20
2019-03-17T05:50:29.495Z,65.33
2019-03-17T05:52:58.739Z,60.57
2019-03-17T05:55:28.005Z,44.60
2019-03-17T05:57:57.320Z,76.53
2019-03-17T06:00:26.700Z,48.00
2019-03-17T06:02:56.023Z,58.83
2019-03-17T06:05:25.537Z,89.13
2019-03-17T06:07:54.989Z,34.57
2019-03-17T06:10:24.320Z,43.03
2019-03-17T06:12:53.630Z,34.47
2019-03-17T06:15:22.967Z,35.17
2019-03-17T06:17:52.303Z,34.07
2019-03-17T06:20:21.627Z,41.00
2019-03-17T06:22:51.253Z,32.13
2019-03-17T06:25:20.525Z,25.80
2019-03-17T06:27:49.788Z,31.50
2019-03-17T06:30:19.106Z,31.47
2019-03-17T06:32:48.422Z,33.03
2019-03-17T06:35:17.676Z,32.63
2019-03-17T06:37:47.659Z,31.53
2019-03-17T06:40:16.975Z,28.37
2019-03-17T06:42:46.229Z,26.93
2019-03-17T06:45:15.547Z,27.43
2019-03-17T06:47:44.803Z,27.40
2019-03-17T06:50:14.080Z,28.13
2019-03-17T06:52:43.790Z,27.90
2019-03-17T06:55:13.477Z,28.20
2019-03-17T06:57:42.797Z,27.13
2019-03-17T07:00:12.283Z,26.60
2019-03-17T07:02:41.525Z,28.70
2019-03-17T07:05:10.727Z,28.13
2019-03-17T07:07:44.305Z,26.73
2019-03-17T07:10:11.603Z,28.30
2019-03-17T07:12:40.949Z,26.70
2019-03-17T07:15:10.242Z,25.20
2019-03-17T07:17:39.622Z,28.43
2019-03-17T07:20:10.094Z,29.30
2019-03-17T07:22:39.331Z,25.87
2019-03-17T07:25:09.529Z,24.57
2019-03-17T07:27:38.971Z,28.00
2019-03-17T07:30:09.360Z,25.63
2019-03-17T07:32:38.628Z,27.27
2019-03-17T07:35:07.955Z,25.53
2019-03-17T07:37:38.208Z,56.13
2019-03-17T07:40:08.705Z,31.63
2019-03-17T07:42:38.798Z,23.33
2019-03-17T07:45:08.243Z,25.77
2019-03-17T07:47:37.511Z,21.37
2019-03-17T07:50:08.201Z,21.60
2019-03-17T07:52:37.502Z,20.03
2019-03-17T07:55:07.789Z,15.73
2019-03-17T07:57:37.100Z,24.17
2019-03-17T08:00:06.811Z,38.93
2019-03-17T08:02:36.143Z,17.63
2019-03-17T08:05:06.178Z,22.20
2019-03-17T08:07:35.522Z,21.20
2019-03-17T08:10:05.356Z,16.23
2019-03-17T08:12:35.199Z,15.63
2019-03-17T08:15:04.486Z,15.27
2019-03-17T08:17:34.201Z,14.77
2019-03-17T08:20:03.692Z,11.30
2019-03-17T08:22:33.021Z,11.83
2019-03-17T08:25:02.268Z,14.30
2019-03-17T08:27:32.478Z,11.07
2019-03-17T08:30:01.724Z,10.80
2019-03-17T08:32:31.064Z,14.03
2019-03-17T08:35:00.397Z,9.47
2019-03-17T08:37:29.754Z,9.60
2019-03-17T08:39:59.067Z,10.63
2019-03-17T08:42:28.344Z,15.07
2019-03-17T08:44:57.715Z,19.73
2019-03-17T08:47:27.050Z,14.20
2019-03-17T08:49:56.372Z,12.67
2019-03-17T08:52:25.771Z,12.97
2019-03-17T08:54:55.727Z,12.60
2019-03-17T08:57:25.110Z,12.50
2019-03-17T08:59:54.454Z,14.23
2019-03-17T09:02:23.828Z,10.70
2019-03-17T09:04:53.172Z,10.57
2019-03-17T09:07:22.511Z,7.67
2019-03-17T09:09:53.137Z,11.63
2019-03-17T09:12:22.780Z,7.57
2019-03-17T09:14:52.105Z,8.40
2019-03-17T09:17:21.900Z,7.70
2019-03-17T09:19:51.239Z,10.60
2019-03-17T09:22:22.306Z,13.87
2019-03-17T09:24:51.683Z,11.63
2019-03-17T09:27:21.038Z,12.40
2019-03-17T09:29:50.914Z,8.70
2019-03-17T09:32:20.236Z,5.73
2019-03-17T09:34:49.494Z,6.43
2019-03-17T09:37:18.861Z,5.67
2019-03-17T09:39:48.207Z,7.17
2019-03-17T09:42:17.837Z,5.87
2019-03-17T09:44:47.188Z,7.20
2019-03-17T09:47:16.505Z,5.50
2019-03-17T09:49:45.753Z,6.37
2019-03-17T09:52:15.204Z,6.00
2019-03-17T09:54:44.533Z,6.67
2019-03-17T09:57:13.786Z,5.53
2019-03-17T09:59:43.053Z,6.23
2019-03-17T10:02:12.290Z,4.97
2019-03-17T10:04:41.816Z,5.20
2019-03-17T10:07:11.266Z,5.43
2019-03-17T10:09:40.677Z,5.13
2019-03-17T10:12:09.998Z,8.87
2019-03-17T10:14:39.414Z,4.13
2019-03-17T10:17:08.773Z,4.40
2019-03-17T10:19:38.069Z,5.13
2019-03-17T10:22:07.315Z,5.37
2019-03-17T10:24:37.001Z,16.43
2019-03-17T10:27:06.257Z,12.27
2019-03-17T10:29:35.709Z,9.03
2019-03-17T10:32:05.015Z,5.47
2019-03-17T10:34:34.334Z,5.70
2019-03-17T10:37:03.602Z,4.63
2019-03-17T10:39:32.979Z,4.80
2019-03-17T10:42:02.749Z,4.77
2019-03-17T10:44:32.207Z,7.23
2019-03-17T10:47:01.547Z,7.90
2019-03-17T10:49:30.927Z,4.17
2019-03-17T10:52:01.265Z,5.17
2019-03-17T10:54:30.644Z,4.60
2019-03-17T10:57:00.046Z,4.30
2019-03-17T10:59:29.780Z,4.23
2019-03-17T11:01:59.127Z,3.63
2019-03-17T11:04:28.498Z,3.83
2019-03-17T11:06:58.399Z,3.83
2019-03-17T11:09:27.761Z,4.10
2019-03-17T11:11:58.033Z,4.70
2019-03-17T11:14:27.362Z,3.77
2019-03-17T11:16:56.748Z,3.73
2019-03-17T11:19:26.750Z,3.73
2019-03-17T11:21:56.075Z,4.57
2019-03-17T11:24:25.431Z,3.47
2019-03-17T11:26:55.841Z,3.40
2019-03-17T11:29:25.319Z,3.27
2019-03-17T11:31:55.067Z,2.83
2019-03-17T11:34:24.450Z,3.50
2019-03-17T11:36:53.859Z,3.67
2019-03-17T11:39:23.255Z,3.50
2019-03-17T11:41:52.639Z,3.50
2019-03-17T11:44:22.618Z,2.80
2019-03-17T11:46:52.111Z,3.03
2019-03-17T11:49:21.686Z,4.63
2019-03-17T11:51:51.047Z,4.10
2019-03-17T11:54:20.510Z,3.20
2019-03-17T11:56:49.946Z,2.97
2019-03-17T11:59:19.390Z,7.13
2019-03-17T12:01:49.333Z,3.37
2019-03-17T12:04:18.715Z,2.70
2019-03-17T12:06:48.061Z,3.10
2019-03-17T12:09:28.600Z,2.40
2019-03-17T12:11:48.410Z,2.80
2019-03-17T12:14:17.785Z,2.80
2019-03-17T12:16:47.089Z,2.70
2019-03-17T12:19:16.456Z,2.20
2019-03-17T12:21:46.539Z,2.67
2019-03-17T12:24:15.965Z,3.00
2019-03-17T12:26:45.331Z,2.80
2019-03-17T12:29:14.932Z,2.40
2019-03-17T12:31:44.277Z,2.57
2019-03-17T12:34:14.164Z,3.30
2019-03-17T12:36:43.989Z,8.67
2019-03-17T12:39:13.334Z,11.67
2019-03-17T12:41:42.729Z,9.43
2019-03-17T12:44:12.759Z,35.23
2019-03-17T12:46:42.041Z,27.67
2019-03-17T12:49:12.259Z,23.20
2019-03-17T12:51:42.197Z,23.73
2019-03-17T12:54:12.035Z,17.93
2019-03-17T12:56:41.335Z,4.93
2019-03-17T12:59:10.682Z,3.10
2019-03-17T13:01:39.990Z,5.03
2019-03-17T13:04:09.609Z,3.53
2019-03-17T13:06:39.092Z,3.60
2019-03-17T13:09:08.407Z,3.77
2019-03-17T13:11:37.731Z,4.07
2019-03-17T13:14:07.179Z,2.83
2019-03-17T13:16:36.391Z,2.60
2019-03-17T13:19:05.720Z,3.10
2019-03-17T13:21:35.100Z,2.90
2019-03-17T13:24:04.412Z,3.40
2019-03-17T13:26:33.720Z,2.80
2019-03-17T13:29:03.130Z,2.73
2019-03-17T13:31:32.530Z,2.40
2019-03-17T13:34:01.822Z,2.80
2019-03-17T13:36:31.140Z,2.20
2019-03-17T13:39:00.419Z,2.50
2019-03-17T13:41:29.734Z,2.30
2019-03-17T13:43:59.153Z,2.00
2019-03-17T13:46:28.991Z,2.10
2019-03-17T13:48:58.239Z,2.10
2019-03-17T13:51:27.589Z,2.00
2019-03-17T13:53:56.940Z,1.87
2019-03-17T13:56:26.194Z,2.00
2019-03-17T13:58:55.511Z,2.10
2019-03-17T14:01:24.913Z,2.10
2019-03-17T14:03:55.039Z,1.77
2019-03-17T14:06:27.632Z,1.90
2019-03-17T14:08:56.996Z,2.50
2019-03-17T14:11:26.240Z,2.20
2019-03-17T14:13:55.650Z,3.23
2019-03-17T14:16:24.890Z,3.17
2019-03-17T14:18:54.139Z,3.03
2019-03-17T14:21:24.585Z,3.00
2019-03-17T14:23:54.127Z,3.80
2019-03-17T14:26:23.401Z,3.20
2019-03-17T14:28:52.727Z,3.90
2019-03-17T14:31:24.161Z,3.90
2019-03-17T14:33:53.599Z,1.87
2019-03-17T14:36:22.883Z,2.67
2019-03-17T14:38:52.187Z,3.50
2019-03-17T14:41:21.455Z,2.23
2019-03-17T14:43:50.745Z,2.17
2019-03-17T14:46:19.986Z,3.27
2019-03-17T14:48:49.690Z,4.27
2019-03-17T14:51:18.867Z,2.70
2019-03-17T14:53:48.209Z,4.00
2019-03-17T14:56:17.475Z,4.33
2019-03-17T14:58:47.170Z,3.63
2019-03-17T15:01:16.425Z,2.73
2019-03-17T15:03:45.669Z,3.67
2019-03-17T15:06:15.267Z,3.40
2019-03-17T15:08:44.529Z,4.27
2019-03-17T15:11:13.844Z,4.00
2019-03-17T15:13:43.159Z,3.63
2019-03-17T15:16:12.443Z,2.70
2019-03-17T15:18:42.111Z,4.73
2019-03-17T15:21:11.433Z,4.50
2019-03-17T15:23:40.697Z,4.03
2019-03-17T15:26:09.948Z,3.10
2019-03-17T15:28:39.639Z,4.10
2019-03-17T15:31:11.863Z,3.90
2019-03-17T15:33:40.903Z,10.47
2019-03-17T15:36:10.165Z,7.30
2019-03-17T15:38:39.501Z,8.43
2019-03-17T15:41:17.985Z,6.53
2019-03-17T15:43:39.670Z,3.93
2019-03-17T15:46:09.029Z,5.53
2019-03-17T15:48:38.195Z,107.57
2019-03-17T15:51:19.144Z,6.60
2019-03-17T15:53:38.330Z,4.27
2019-03-17T15:56:07.593Z,30.37
2019-03-17T15:58:36.902Z,18.83
2019-03-17T16:01:06.552Z,8.27
2019-03-17T16:03:35.862Z,6.03
2019-03-17T16:06:05.222Z,5.70
2019-03-17T16:08:34.549Z,7.73
2019-03-17T16:11:03.872Z,8.67
2019-03-17T16:13:33.197Z,4.03
2019-03-17T16:16:02.647Z,4.07
2019-03-17T16:18:32.467Z,4.70
2019-03-17T16:21:01.670Z,4.93
2019-03-17T16:23:31.197Z,4.23
2019-03-17T16:26:01.325Z,5.20
2019-03-17T16:28:30.627Z,4.13
2019-03-17T16:31:00.057Z,4.17
2019-03-17T16:33:29.371Z,4.93
2019-03-17T16:35:58.723Z,7.57
2019-03-17T16:38:29.136Z,8.70
2019-03-17T16:40:58.514Z,6.93
2019-03-17T16:43:27.860Z,8.53
2019-03-17T16:45:57.179Z,10.73
2019-03-17T16:48:26.615Z,9.17
2019-03-17T16:50:56.242Z,20.10
2019-03-17T16:53:25.590Z,13.90
2019-03-17T16:55:54.994Z,17.67
2019-03-17T16:58:24.645Z,18.10
2019-03-17T17:00:54.097Z,22.23
2019-03-17T17:03:23.471Z,20.43
2019-03-17T17:05:54.662Z,23.33
2019-03-17T17:08:24.817Z,28.10
2019-03-17T17:10:54.127Z,15.00
2019-03-17T17:13:23.455Z,9.90
2019-03-17T17:15:52.812Z,11.00
2019-03-17T17:18:22.040Z,8.77
2019-03-17T17:20:51.386Z,7.77
2019-03-17T17:23:20.757Z,6.70
2019-03-17T17:25:54.278Z,9.70
2019-03-17T17:28:23.802Z,8.90
2019-03-17T17:30:53.135Z,11.43
2019-03-17T17:33:23.395Z,13.13
2019-03-17T17:35:53.370Z,18.00
2019-03-17T17:38:22.672Z,8.97
2019-03-17T17:40:52.005Z,8.23
2019-03-17T17:43:21.256Z,5.50
2019-03-17T17:45:50.523Z,7.63
2019-03-17T17:48:20.219Z,7.20
2019-03-17T17:50:49.616Z,11.97
2019-03-17T17:53:18.890Z,26.33
2019-03-17T17:55:48.203Z,28.90
2019-03-17T17:58:17.574Z,18.87
2019-03-17T18:00:47.930Z,13.87
2019-03-17T18:03:17.403Z,9.73
2019-03-17T18:05:46.728Z,8.47
2019-03-17T18:08:16.032Z,13.53
2019-03-17T18:10:45.362Z,8.07
2019-03-17T18:13:14.718Z,9.27
2019-03-17T18:15:44.480Z,14.33
2019-03-17T18:18:13.839Z,23.77
2019-03-17T18:20:43.199Z,28.27
2019-03-17T18:23:17.989Z,25.47
2019-03-17T18:25:43.519Z,25.77
2019-03-17T18:28:12.849Z,36.47
2019-03-17T18:30:42.165Z,25.70
2019-03-17T18:33:11.471Z,21.67
2019-03-17T18:35:41.611Z,27.87
2019-03-17T18:38:10.877Z,26.03
2019-03-17T18:40:42.223Z,35.63
2019-03-17T18:43:11.101Z,34.37
2019-03-17T18:45:42.579Z,52.93
2019-03-17T18:48:11.327Z,61.77
2019-03-17T18:50:40.715Z,78.97
2019-03-17T18:53:10.055Z,98.57
2019-03-17T18:55:39.519Z,63.30
2019-03-17T18:58:08.853Z,51.57
2019-03-17T19:00:38.146Z,36.43
2019-03-17T19:03:07.381Z,27.87
2019-03-17T19:05:37.094Z,25.53
2019-03-17T19:08:06.454Z,20.47
2019-03-17T19:10:35.803Z,18.97
2019-03-17T19:13:05.046Z,16.60
2019-03-17T19:15:34.412Z,17.20
2019-03-17T19:18:03.740Z,21.50
2019-03-17T19:20:33.059Z,23.13
2019-03-17T19:23:02.341Z,23.60
2019-03-17T19:25:31.617Z,25.33
2019-03-17T19:28:00.954Z,23.87
2019-03-17T19:30:30.318Z,16.30
2019-03-17T19:32:59.595Z,16.20
2019-03-17T19:35:29.567Z,15.50
2019-03-17T19:37:59.245Z,13.63
2019-03-17T19:40:28.610Z,14.57
2019-03-17T19:42:59.654Z,18.10
2019-03-17T19:45:29.023Z,84.17
2019-03-17T19:47:58.409Z,131.57
2019-03-17T19:50:27.925Z,165.40
2019-03-17T19:52:57.319Z,70.73
2019-03-17T19:55:26.746Z,12.43
2019-03-17T19:57:57.694Z,8.63
2019-03-17T20:00:27.305Z,74.63
2019-03-17T20:02:56.683Z,139.80
2019-03-17T20:05:26.111Z,204.77
2019-03-17T20:07:55.835Z,27.03
2019-03-17T20:10:28.576Z,34.07
2019-03-17T20:13:10.292Z,15.73
2019-03-17T20:15:29.879Z,27.97
2019-03-17T20:17:59.402Z,22.27
2019-03-17T20:20:28.820Z,21.30
2019-03-17T20:22:58.306Z,21.00
2019-03-17T20:25:27.686Z,19.97
2019-03-17T20:27:57.135Z,17.93
2019-03-17T20:30:26.479Z,19.07
2019-03-17T20:32:55.822Z,24.43
2019-03-17T20:35:25.706Z,50.77
2019-03-17T20:37:54.974Z,41.37
2019-03-17T20:40:25.006Z,28.70
2019-03-17T20:42:54.394Z,31.93
2019-03-17T20:45:23.829Z,34.13
2019-03-17T20:47:53.297Z,21.57
2019-03-17T20:50:22.614Z,27.10
2019-03-17T20:52:52.481Z,26.07
2019-03-17T20:55:21.888Z,22.93
2019-03-17T20:57:52.223Z,42.63
2019-03-17T21:00:21.648Z,33.97
2019-03-17T21:02:51.050Z,20.30
2019-03-17T21:05:20.389Z,17.57
2019-03-17T21:07:49.695Z,39.03
2019-03-17T21:10:19.286Z,30.90
2019-03-17T21:12:48.655Z,26.10
2019-03-17T21:15:19.080Z,15.17
2019-03-17T21:17:48.504Z,17.60
2019-03-17T21:20:18.396Z,16.10
2019-03-17T21:22:48.134Z,20.60
2019-03-17T21:25:17.569Z,18.23
2019-03-17T21:27:46.999Z,23.83
2019-03-17T21:30:20.736Z,16.17
2019-03-17T21:32:50.118Z,14.07
2019-03-17T21:35:19.866Z,13.83
2019-03-17T21:37:49.473Z,19.80
2019-03-17T21:40:18.825Z,16.20
2019-03-17T21:42:48.279Z,9.97
2019-03-17T21:45:17.602Z,10.70
2019-03-17T21:47:46.871Z,23.77
2019-03-17T21:50:16.647Z,25.53
2019-03-17T21:52:45.908Z,26.63
2019-03-17T21:55:15.174Z,31.97
2019-03-17T21:57:44.507Z,27.33
2019-03-17T22:00:14.937Z,31.70
2019-03-17T22:02:44.322Z,28.27
2019-03-17T22:05:14.282Z,26.10
2019-03-17T22:07:50.047Z,33.53
2019-03-17T22:10:15.360Z,32.87
2019-03-17T22:12:44.662Z,29.73
2019-03-17T22:15:13.998Z,23.93
2019-03-17T22:17:43.253Z,28.20
2019-03-17T22:20:12.784Z,17.80
2019-03-17T22:22:42.063Z,19.57
2019-03-17T22:25:11.325Z,15.43
2019-03-17T22:27:40.592Z,19.80
2019-03-17T22:30:11.319Z,21.97
2019-03-17T22:32:40.637Z,10.47
2019-03-17T22:35:10.072Z,10.47
2019-03-17T22:37:39.433Z,11.77
2019-03-17T22:40:10.299Z,11.57
2019-03-17T22:42:39.590Z,24.80
2019-03-17T22:45:09.541Z,16.73
2019-03-17T22:47:38.780Z,21.43
2019-03-17T22:50:08.658Z,17.67
2019-03-17T22:52:38.222Z,23.00
2019-03-17T22:55:09.065Z,31.30
2019-03-17T22:57:38.336Z,19.43
2019-03-17T23:00:11.809Z,13.57
2019-03-17T23:02:41.235Z,11.90
2019-03-17T23:05:10.666Z,11.60
2019-03-17T23:07:40.096Z,11.40
2019-03-17T23:10:10.182Z,10.83
2019-03-17T23:12:39.742Z,12.67
2019-03-17T23:15:09.883Z,12.30
2019-03-17T23:17:39.297Z,8.10
2019-03-17T23:20:09.790Z,6.37
2019-03-17T23:22:39.243Z,5.93
2019-03-17T23:25:08.966Z,5.10
2019-03-17T23:27:38.388Z,3.50
2019-03-17T23:30:08.574Z,4.23
2019-03-17T23:32:37.983Z,4.20
2019-03-17T23:35:07.791Z,4.30
2019-03-17T23:37:38.229Z,3.40
2019-03-17T23:40:09.686Z,4.30
2019-03-17T23:42:38.758Z,4.70
2019-03-17T23:45:08.557Z,4.83
2019-03-17T23:47:39.694Z,4.07
2019-03-17T23:50:09.488Z,4.70
2019-03-17T23:52:38.878Z,4.70
2019-03-17T23:55:10.053Z,3.83
2019-03-17T23:57:39.495Z,3.90
